»·PEaware :: FDX3171 KTUS-KPHX

FDX3171 :: KTUS-KPHX

FLIGHT INFORMATION

Flight Status: Arrived
Operator:
Federal Express
More flights by this operator :: More flights under this callsign
Pilot: David C. (16084)
Aircraft: BEECH AIRCRAFT BEECH AIRLINER
(B190)
More flights by this aircraft type
Origin: KTUS Tucson Intl
United States
Destination: KPHX Phoenix Sky Harbor Intl
United States
More flights between these airports :: More routes between these airports
Route: TUS8 TUS V105 PXR
File this flight plan on PilotEdge
Remarks: PBN / D2 DOF / 171005 REG / FDX3171 OPR / PIP RMK / TCAS SIMBRIEF
Altitude:
(Current/Filed)
20,000ft
Speed:
(Current/Filed)
258kts
Departed: 05-Oct-17 12:25 PM
Arrived: 05-Oct-17 01:00 PM
Distance/Time
Traveled:
96nm/0:35
Distance/Time
To Go:
Arrived

Flight Plot

Page will automatically refresh every two minutes.

Flight plan parsing failed; only flown route is shown


Map Options




Map Legend


Flown Route
Filed Route
Departure Airport
Arrival Airport
Navaid (VOR, NDB)
Fix

Horizontal Profiles

Position Reports

Time Latitude Longitude Heading Altitude Ground
Speed
05-Oct-17 12:10 32.115329 -110.930514 134 2616ft 0kts
05-Oct-17 12:11 32.115329 -110.930514 134 2616ft 0kts
05-Oct-17 12:12 32.115329 -110.930514 134 2616ft 0kts
05-Oct-17 12:13 32.115329 -110.930514 134 2616ft 0kts
05-Oct-17 12:14 32.115329 -110.930514 134 2616ft 0kts
05-Oct-17 12:15 32.115329 -110.930514 134 2616ft 0kts
05-Oct-17 12:16 32.115329 -110.930514 134 2616ft 0kts
05-Oct-17 12:17 32.115329 -110.930514 134 2616ft 0kts
05-Oct-17 12:18 32.115329 -110.930514 134 2616ft 0kts
05-Oct-17 12:19 32.115329 -110.930514 134 2616ft 0kts
05-Oct-17 12:20 32.115329 -110.930514 134 2616ft 0kts
05-Oct-17 12:21 32.115329 -110.930514 134 2616ft 0kts
05-Oct-17 12:22 32.115329 -110.930514 134 2616ft 0kts
05-Oct-17 12:23 32.115162 -110.930855 287 2616ft 9kts
05-Oct-17 12:24 32.112274 -110.932398 133 2621ft 26kts
05-Oct-17 12:25 32.106364 -110.925463 135 2641ft 23kts
05-Oct-17 12:26 32.102996 -110.922690 227 2651ft 0kts
05-Oct-17 12:27 32.102996 -110.922690 227 2651ft 0kts
05-Oct-17 12:28 32.102617 -110.923407 267 2649ft 16kts
05-Oct-17 12:29 32.125195 -110.950487 315 3631ft 155kts
05-Oct-17 12:30 32.152807 -110.937730 106 5697ft 165kts
05-Oct-17 12:31 32.113524 -110.935091 212 7271ft 173kts
05-Oct-17 12:32 32.106431 -110.977293 334 8680ft 194kts
05-Oct-17 12:33 32.145634 -111.013701 297 10751ft 186kts
05-Oct-17 12:34 32.168385 -111.057998 295 12192ft 194kts
05-Oct-17 12:35 32.199148 -111.119322 293 14918ft 189kts
05-Oct-17 12:36 32.221350 -111.164081 292 16698ft 192kts
05-Oct-17 12:37 32.258662 -111.239924 294 17285ft 247kts
05-Oct-17 12:38 32.285204 -111.292367 293 19340ft 205kts
05-Oct-17 12:39 32.315627 -111.354450 293 19980ft 242kts
05-Oct-17 12:40 32.351653 -111.427340 294 19962ft 267kts
05-Oct-17 12:41 32.404351 -111.510321 319 19960ft 287kts
05-Oct-17 12:42 32.459381 -111.554933 319 19958ft 289kts
05-Oct-17 12:43 32.525265 -111.608910 319 19958ft 289kts
05-Oct-17 12:44 32.591332 -111.663223 319 19959ft 289kts
05-Oct-17 12:45 32.657502 -111.717738 319 19954ft 290kts
05-Oct-17 12:46 32.723681 -111.772355 319 19949ft 290kts
05-Oct-17 12:47 32.789936 -111.826308 318 19946ft 290kts
05-Oct-17 12:48 32.855611 -111.881468 319 19945ft 290kts
05-Oct-17 12:49 32.932095 -111.912203 349 19946ft 304kts
05-Oct-17 12:50 33.016170 -111.922333 348 19945ft 305kts
05-Oct-17 12:51 33.087373 -111.870716 43 18553ft 317kts
05-Oct-17 12:52 33.150535 -111.797944 43 16373ft 317kts
05-Oct-17 12:53 33.213218 -111.725939 43 14182ft 310kts
05-Oct-17 12:54 33.273930 -111.656562 43 11978ft 297kts
05-Oct-17 12:55 33.331468 -111.590141 43 9773ft 278kts
05-Oct-17 12:56 33.387394 -111.602296 293 7578ft 236kts
05-Oct-17 12:57 33.413718 -111.668302 292 5115ft 204kts
05-Oct-17 12:58 33.428210 -111.726774 271 4066ft 176kts
05-Oct-17 12:59 33.429197 -111.780633 269 4061ft 156kts
05-Oct-17 13:00 33.429327 -111.832698 269 3864ft 162kts
05-Oct-17 13:01 33.429222 -111.882699 270 3074ft 150kts
05-Oct-17 13:02 33.429138 -111.934279 270 2248ft 157kts
05-Oct-17 13:03 33.428981 -111.981987 270 1471ft 125kts
05-Oct-17 13:04 33.428865 -112.015645 270 1118ft 38kts
05-Oct-17 13:05 33.428174 -112.016574 178 1117ft 0kts
05-Oct-17 13:06 33.426667 -112.016480 90 1114ft 0kts
05-Oct-17 13:07 33.426667 -112.016480 90 1114ft 0kts

Navigation Log

Ident Type
Flight plan parsing failed, navigation log unavailable